Time;durP1;ratioP1;P1;durP2;ratioP2;P2;SDS_P1;SDS_P2;PMS_P1;PMS_P2;Temp;Humidity;BMP_temperature;BMP_pressure;BME280_temperature;BME280_humidity;BME280_pressure;Samples;Min_cycle;Max_cycle;Signal;HPM_P1;HPM_P2
2022/11/23 00:01:26;;;;;;;;;0.00;0.00;;;;;17.50;62.34;100023.37;146613;641;47020;-73
2022/11/23 00:04:27;;;;;;;;;0.00;0.00;;;;;17.38;63.61;100012.75;146612;597;46016;-72
2022/11/23 00:07:30;;;;;;;;;0.00;0.00;;;;;17.31;64.46;100010.94;146617;585;46020;-69
2022/11/23 00:10:24;;;;;;;;;2.00;1.00;;;;;17.23;66.41;100018.72;146613;586;46016;-70
2022/11/23 00:13:41;;;;;;;;;;;;;;;;;;;;;
2022/11/23 00:16:35;;;;;;;;;0.00;0.00;;;;;17.06;69.58;100010.59;146613;570;46013;-72
2022/11/23 00:19:30;;;;;;;;;0.00;0.00;;;;;16.93;70.32;100006.06;146618;581;47010;-71
2022/11/23 00:22:30;;;;;;;;;0.00;0.00;;;;;16.76;69.42;99991.84;146612;677;46037;-74
2022/11/23 00:25:25;;;;;;;;;0.00;0.00;;;;;16.65;68.90;99996.03;146617;632;46021;-73
2022/11/23 00:28:21;;;;;;;;;0.00;0.00;;;;;16.56;69.22;99988.91;146612;620;46016;-75
2022/11/23 00:31:24;;;;;;;;;0.00;0.00;;;;;16.55;68.63;99997.62;146619;599;46028;-73
2022/11/23 00:34:38;;;;;;;;;0.00;0.00;;;;;16.51;69.32;99983.63;146611;659;46016;-72
2022/11/23 00:37:44;;;;;;;;;0.00;0.00;;;;;16.48;67.83;99951.25;146617;571;46020;-70
2022/11/23 00:40:42;;;;;;;;;0.00;0.00;;;;;16.50;68.79;99936.47;146612;654;46016;-70
2022/11/23 00:43:51;;;;;;;;;0.00;0.00;;;;;16.50;67.05;99937.34;146616;616;47010;-71
2022/11/23 00:46:54;;;;;;;;;0.00;0.00;;;;;16.53;69.05;99963.56;146613;570;46013;-72
2022/11/23 00:49:50;;;;;;;;;0.00;0.00;;;;;16.49;69.55;99959.16;146618;578;46020;-74
2022/11/23 00:52:53;;;;;;;;;0.00;0.00;;;;;16.43;70.98;99951.22;146611;597;47914;-74
2022/11/23 00:56:03;;;;;;;;;0.00;0.00;;;;;16.34;71.20;99927.53;146619;576;46010;-73
2022/11/23 00:58:59;;;;;;;;;0.00;0.00;;;;;16.24;71.05;99917.78;146612;624;46012;-75
2022/11/23 01:01:56;;;;;;;;;0.00;0.00;;;;;16.16;70.91;99925.50;146617;671;46021;-74
2022/11/23 01:04:53;;;;;;;;;0.00;0.00;;;;;16.07;70.95;99915.75;146613;597;46914;-73
2022/11/23 01:07:47;;;;;;;;;0.00;0.00;;;;;16.07;71.58;99915.75;146622;667;46010;-73
2022/11/23 01:10:47;;;;;;;;;0.00;0.00;;;;;16.04;71.02;99907.88;146619;603;46914;-74
2022/11/23 01:13:46;;;;;;;;;0.00;0.00;;;;;16.00;71.93;99908.69;146624;617;46020;-71
2022/11/23 01:16:50;;;;;;;;;0.00;0.00;;;;;15.97;71.05;99906.00;146624;581;46012;-71
2022/11/23 01:19:43;;;;;;;;;0.00;0.00;;;;;15.96;69.29;99921.69;146623;646;46032;-71
2022/11/23 01:22:49;;;;;;;;;0.00;0.00;;;;;15.98;69.18;99917.34;146617;574;46016;-72
2022/11/23 01:25:46;;;;;;;;;0.00;0.00;;;;;16.01;69.34;99909.56;146623;637;46021;-70
2022/11/23 01:28:39;;;;;;;;;0.00;0.00;;;;;16.03;69.30;99903.50;146621;632;46016;-70
2022/11/23 01:31:34;;;;;;;;;0.00;0.00;;;;;16.00;69.24;99887.75;146624;570;46021;-70
2022/11/23 01:34:29;;;;;;;;;0.00;0.00;;;;;15.91;69.20;99892.84;146620;682;46012;-70
2022/11/23 01:37:35;;;;;;;;;0.00;0.00;;;;;15.84;69.32;99893.59;146626;610;46010;-70
2022/11/23 01:40:44;;;;;;;;;0.00;0.00;;;;;15.82;70.15;99885.72;146620;584;46012;-71
2022/11/23 01:43:39;;;;;;;;;0.00;0.00;;;;;15.78;70.31;99891.75;146624;613;46010;-70
2022/11/23 01:46:37;;;;;;;;;0.00;0.00;;;;;15.79;69.81;99890.03;146618;599;46017;-70
2022/11/23 01:49:34;;;;;;;;;0.00;0.00;;;;;15.81;69.33;99883.09;146625;576;47010;-71
2022/11/23 01:52:37;;;;;;;;;0.00;0.00;;;;;15.84;68.34;99897.09;146618;583;46016;-70
2022/11/23 01:55:32;;;;;;;;;0.00;0.00;;;;;15.85;68.85;99880.53;146624;641;46021;-70
2022/11/23 01:58:38;;;;;;;;;0.00;0.00;;;;;15.84;68.06;99876.19;146617;582;47012;-71
2022/11/23 02:01:33;;;;;;;;;0.00;0.00;;;;;15.91;68.50;99885.88;146625;646;46010;-71
2022/11/23 02:04:51;;;;;;;;;;;;;;;;;;;;;
2022/11/23 02:08:03;;;;;;;;;0.00;0.00;;;;;13.08;66.88;99398.09;146617;571;46020;-71
2022/11/23 02:11:03;;;;;;;;;0.00;0.00;;;;;15.89;67.70;99886.72;146609;614;47917;-71
2022/11/23 02:14:18;;;;;;;;;0.00;0.00;;;;;15.88;68.48;99872.75;146618;579;46010;-71
2022/11/23 02:17:18;;;;;;;;;0.00;0.00;;;;;15.84;68.80;99864.84;146609;658;47014;-70
2022/11/23 02:20:28;;;;;;;;;0.00;0.00;;;;;15.81;68.55;99864.78;146605;596;46020;-71
2022/11/23 02:24:04;;;;;;;;;0.00;0.00;;;;;13.23;67.60;99410.56;146611;589;46014;-71
2022/11/23 02:26:57;;;;;;;;;0.00;0.00;;;;;15.84;68.44;99850.03;146617;576;46020;-71
2022/11/23 02:29:52;;;;;;;;;5.00;2.75;;;;;15.88;68.35;99845.72;146613;702;46917;-71
2022/11/23 02:32:45;;;;;;;;;3.33;2.33;;;;;16.00;69.65;99845.06;146619;619;46010;-71
2022/11/23 02:35:37;;;;;;;;;5.33;3.67;;;;;16.10;69.52;99847.81;146614;632;46917;-68
2022/11/23 02:38:34;;;;;;;;;0.00;0.00;;;;;16.21;67.93;99852.34;146618;627;46036;-70
2022/11/23 02:41:26;;;;;;;;;2.33;1.00;;;;;16.30;68.09;99852.47;146616;564;46012;-69
2022/11/23 02:44:39;;;;;;;;;8.25;3.00;;;;;16.36;68.14;99848.19;146618;564;45020;-71
2022/11/23 02:47:31;;;;;;;;;5.00;4.00;;;;;16.43;68.81;99848.28;146613;608;46012;-71
2022/11/23 02:50:23;;;;;;;;;35.50;25.75;;;;;16.47;67.82;99858.81;146604;638;46020;-70
2022/11/23 02:53:20;;;;;;;;;32.50;26.00;;;;;16.52;67.00;99864.13;146606;603;46016;-70
2022/11/23 02:56:20;;;;;;;;;29.75;21.25;;;;;16.58;66.81;99882.50;146609;573;46020;-75
2022/11/23 02:59:17;;;;;;;;;10.75;9.00;;;;;16.57;69.66;99897.34;146606;657;46017;-70
2022/11/23 03:02:24;;;;;;;;;;;;;;;;;;;;;
2022/11/23 03:05:23;;;;;;;;;3.00;2.00;;;;;16.44;69.80;99915.44;146613;662;46014;-75
2022/11/23 03:08:25;;;;;;;;;1.33;1.00;;;;;16.38;70.87;99918.84;146636;576;45021;-77
2022/11/23 03:11:23;;;;;;;;;1.33;1.33;;;;;16.27;70.30;99917.81;146632;651;46012;-74
2022/11/23 03:14:18;;;;;;;;;1.67;0.67;;;;;16.18;68.93;99926.41;146635;600;45020;-74
2022/11/23 03:17:29;;;;;;;;;1.00;0.00;;;;;16.13;67.75;99933.28;146633;563;45917;-76
2022/11/23 03:20:24;;;;;;;;;2.00;1.00;;;;;16.10;69.51;99931.50;146630;577;45010;-75
2022/11/23 03:23:22;;;;;;;;;2.33;1.00;;;;;16.06;69.36;99937.53;146637;569;45917;-76
2022/11/23 03:26:23;;;;;;;;;2.67;2.67;;;;;16.03;68.60;99931.38;146638;626;45020;-77
2022/11/23 03:29:28;;;;;;;;;1.00;1.00;;;;;15.98;70.32;99931.31;146634;651;45917;-76
2022/11/23 03:32:31;;;;;;;;;;;;;;;;;;;;;
2022/11/23 03:35:35;;;;;;;;;0.00;0.00;;;;;15.92;69.77;99911.19;146633;586;45016;-76
2022/11/23 03:38:27;;;;;;;;;1.33;0.33;;;;;15.90;69.01;99923.34;146636;667;45010;-76
2022/11/23 03:41:28;;;;;;;;;0.00;0.00;;;;;15.90;69.02;99909.37;146632;585;46012;-76
2022/11/23 03:44:21;;;;;;;;;3.00;2.67;;;;;15.92;69.86;99900.72;146635;588;45021;-78
2022/11/23 03:47:15;;;;;;;;;0.00;0.00;;;;;15.95;69.34;99889.44;146635;580;45012;-78
2022/11/23 03:50:24;;;;;;;;;0.33;0.00;;;;;15.93;68.39;99881.56;146631;632;45020;-78
2022/11/23 03:53:20;;;;;;;;;2.00;0.00;;;;;15.86;70.57;99868.38;146633;641;45016;-76
2022/11/23 03:56:15;;;;;;;;;0.33;0.33;;;;;15.75;70.38;99872.53;146636;642;45014;-76
2022/11/23 03:59:10;;;;;;;;;1.33;1.00;;;;;15.68;70.19;99876.78;146636;727;45016;-78
2022/11/23 04:02:07;;;;;;;;;0.33;0.33;;;;;15.64;70.64;99865.38;146636;573;46010;-78
2022/11/23 04:05:01;;;;;;;;;0.33;0.33;;;;;15.62;70.78;99880.13;146632;586;45012;-79
2022/11/23 04:08:03;;;;;;;;;2.33;1.00;;;;;15.64;70.77;99875.81;146618;635;46021;-78
2022/11/23 04:11:12;;;;;;;;;1.00;0.33;;;;;15.61;71.07;99875.78;146613;565;46034;-77
2022/11/23 04:14:16;;;;;;;;;1.33;0.00;;;;;15.59;70.98;99880.09;146618;572;46021;-74
2022/11/23 04:17:20;;;;;;;;;2.00;2.00;;;;;15.57;71.73;99875.69;146612;641;46014;-75
2022/11/23 04:20:29;;;;;;;;;0.33;0.33;;;;;12.87;68.77;99435.88;146613;624;46020;-75
2022/11/23 04:23:38;;;;;;;;;0.00;0.00;;;;;15.50;69.61;99886.87;146614;563;46016;-74
2022/11/23 04:26:34;;;;;;;;;1.00;1.00;;;;;15.49;69.09;99883.41;146619;650;46020;-72
2022/11/23 04:29:28;;;;;;;;;0.00;0.00;;;;;15.50;68.84;99890.38;146607;570;46917;-72
2022/11/23 04:32:20;;;;;;;;;0.00;0.00;;;;;15.50;68.32;99894.72;146618;678;46020;-74
2022/11/23 04:35:18;;;;;;;;;0.33;0.33;;;;;15.51;67.43;99886.00;146612;612;46012;-75
2022/11/23 04:38:24;;;;;;;;;0.33;0.33;;;;;15.53;66.78;99884.31;146618;570;46010;-72
2022/11/23 04:41:20;;;;;;;;;0.33;0.33;;;;;15.54;66.91;99873.88;146613;571;46016;-73
2022/11/23 04:44:13;;;;;;;;;1.00;0.00;;;;;15.57;67.54;99876.56;146617;580;46010;-73
2022/11/23 04:47:17;;;;;;;;;0.33;0.00;;;;;15.56;66.59;99879.16;146609;573;46012;-73
2022/11/23 04:50:21;;;;;;;;;1.00;0.00;;;;;15.55;66.50;99859.13;146611;679;47010;-73
2022/11/23 04:53:13;;;;;;;;;0.00;0.00;;;;;15.50;66.13;99861.63;146616;588;46012;-72
2022/11/23 04:56:08;;;;;;;;;1.33;1.33;;;;;15.46;65.54;99863.31;146618;570;46020;-72
2022/11/23 04:59:00;;;;;;;;;0.67;0.00;;;;;15.46;65.23;99852.84;146613;564;47014;-72
2022/11/23 05:02:11;;;;;;;;;;;;;;;;;;;;;
2022/11/23 05:05:14;;;;;;;;;2.00;0.00;;;;;15.49;63.95;99865.09;146613;660;46016;-73
2022/11/23 05:08:19;;;;;;;;;;;;;;;;;;;;;
2022/11/23 05:11:15;;;;;;;;;0.00;0.00;;;;;15.53;63.84;99868.66;146610;618;46016;-76
2022/11/23 05:14:08;;;;;;;;;1.33;0.33;;;;;15.53;63.24;99872.13;146618;626;46021;-76
2022/11/23 05:17:05;;;;;;;;;1.67;1.00;;;;;15.53;63.23;99871.25;146613;681;46016;-74
2022/11/23 05:20:03;;;;;;;;;0.00;0.00;;;;;15.53;61.38;99884.31;146609;570;46021;-76
2022/11/23 05:22:56;;;;;;;;;0.00;0.00;;;;;15.57;63.13;99876.56;146614;584;46016;-75
2022/11/23 05:25:58;;;;;;;;;8.00;6.00;;;;;12.92;62.30;99421.22;146617;575;46020;-75
2022/11/23 05:29:03;;;;;;;;;3.33;2.33;;;;;15.60;63.38;99875.72;146612;585;46017;-76
2022/11/23 05:31:58;;;;;;;;;2.50;1.25;;;;;15.58;65.45;99885.28;146616;619;46010;-75
2022/11/23 05:35:00;;;;;;;;;4.33;3.33;;;;;15.56;64.45;99887.00;146612;658;46017;-74
2022/11/23 05:38:01;;;;;;;;;4.33;3.00;;;;;15.55;65.52;99874.78;146615;611;46020;-76
2022/11/23 05:40:57;;;;;;;;;5.33;3.00;;;;;15.53;65.50;99877.34;146610;663;46016;-76
2022/11/23 05:44:09;;;;;;;;;2.67;2.67;;;;;15.50;65.63;99885.13;146618;663;46020;-76
2022/11/23 05:47:03;;;;;;;;;2.67;2.67;;;;;15.43;66.24;99904.19;146611;594;46012;-73
2022/11/23 05:50:04;;;;;;;;;3.00;3.00;;;;;15.41;65.48;99901.53;146609;583;46021;-74
2022/11/23 05:53:00;;;;;;;;;2.50;2.50;;;;;15.42;65.76;99907.63;146610;572;46012;-78
2022/11/23 05:55:54;;;;;;;;;3.33;2.67;;;;;15.41;65.99;99914.59;146617;578;46020;-69
2022/11/23 05:59:05;;;;;;;;;9.50;5.00;;;;;15.34;64.75;99917.06;146613;596;45017;-69
2022/11/23 06:02:10;;;;;;;;;3.25;2.25;;;;;12.64;64.06;99470.88;146617;609;46010;-70
2022/11/23 06:05:05;;;;;;;;;0.00;0.00;;;;;15.18;64.53;99911.53;146610;620;47012;-76
2022/11/23 06:08:05;;;;;;;;;0.00;0.00;;;;;15.10;65.16;99931.38;146615;706;46020;-76
2022/11/23 06:11:07;;;;;;;;;0.00;0.00;;;;;15.04;64.08;99936.50;146614;576;46017;-76
2022/11/23 06:14:15;;;;;;;;;;;;;;;;;;;;;
2022/11/23 06:17:21;;;;;;;;;;;;;;;;;;;;;
2022/11/23 06:20:24;;;;;;;;;3.33;2.33;;;;;15.02;64.89;99946.91;146607;608;46023;-77
2022/11/23 06:23:24;;;;;;;;;1.33;0.67;;;;;15.04;63.68;99951.28;146613;581;46012;-78
2022/11/23 06:26:24;;;;;;;;;2.00;1.00;;;;;14.54;63.91;99860.62;146616;607;46013;-77
2022/11/23 06:29:19;;;;;;;;;2.33;1.33;;;;;15.13;63.13;99948.84;146613;571;46012;-79
2022/11/23 06:32:20;;;;;;;;;2.33;2.00;;;;;15.12;63.35;99949.72;146618;631;46010;-78
2022/11/23 06:35:20;;;;;;;;;2.00;2.00;;;;;15.13;63.90;99944.50;146612;579;46917;-78
2022/11/23 06:38:24;;;;;;;;;2.00;2.00;;;;;15.14;63.45;99946.28;146619;581;46020;-72
2022/11/23 06:41:24;;;;;;;;;2.00;2.00;;;;;15.21;62.69;99957.75;146613;573;46016;-72
2022/11/23 06:44:19;;;;;;;;;3.33;2.00;;;;;15.27;63.72;99968.31;146616;596;46020;-72
2022/11/23 06:47:27;;;;;;;;;;;;;;;;;;;;;
2022/11/23 06:50:22;;;;;;;;;3.00;2.00;;;;;15.43;64.63;99959.03;146611;626;46011;-72
2022/11/23 06:53:27;;;;;;;;;6.00;4.33;;;;;12.87;63.48;99508.72;146613;595;46012;-73
2022/11/23 06:56:31;;;;;;;;;2.33;2.33;;;;;15.48;63.15;99958.28;146614;638;46021;-73
2022/11/23 06:59:36;;;;;;;;;1.33;1.33;;;;;15.47;62.75;99961.72;146610;575;46016;-73
2022/11/23 07:02:28;;;;;;;;;0.00;0.00;;;;;15.50;63.31;99967.88;146617;593;46020;-71
2022/11/23 07:05:32;;;;;;;;;0.00;0.00;;;;;15.52;62.90;99974.91;146614;567;46014;-76
2022/11/23 07:08:42;;;;;;;;;;;;;;;;;;;;;
2022/11/23 07:11:35;;;;;;;;;0.00;0.00;;;;;15.64;63.70;99962.06;146634;621;45017;-75
2022/11/23 07:14:27;;;;;;;;;0.00;0.00;;;;;15.69;63.38;99970.00;146637;612;45031;-72
2022/11/23 07:17:23;;;;;;;;;0.00;0.00;;;;;15.75;63.18;99969.25;146635;563;45916;-71
2022/11/23 07:20:16;;;;;;;;;4.00;0.75;;;;;15.81;62.34;99975.47;146632;683;45011;-82
2022/11/23 07:23:19;;;;;;;;;1.00;0.33;;;;;15.83;61.60;99978.13;146636;671;45016;-76
2022/11/23 07:26:13;;;;;;;;;1.00;0.00;;;;;15.89;59.94;99976.50;146635;589;45011;-76
2022/11/23 07:29:08;;;;;;;;;0.00;0.00;;;;;16.01;56.71;99977.53;146636;584;45016;-80
2022/11/23 07:32:14;;;;;;;;;0.67;0.33;;;;;16.15;57.70;99982.16;146638;653;45020;-76
2022/11/23 07:35:07;;;;;;;;;0.00;0.00;;;;;16.30;58.64;99970.19;146635;645;45017;-78
2022/11/23 07:38:06;;;;;;;;;0.00;0.00;;;;;16.38;57.65;99972.06;146638;587;45010;-79
2022/11/23 07:41:12;;;;;;;;;0.00;0.00;;;;;16.41;56.88;99966.00;146632;565;45917;-76
2022/11/23 07:44:19;;;;;;;;;0.00;0.00;;;;;15.07;56.53;99732.91;146637;658;45020;-76
2022/11/23 07:47:16;;;;;;;;;0.00;0.00;;;;;16.48;58.69;99973.09;146634;600;45012;-76
2022/11/23 07:50:19;;;;;;;;;1.00;1.00;;;;;16.58;58.46;99979.34;146629;630;45917;-76
2022/11/23 07:53:18;;;;;;;;;0.33;0.33;;;;;16.67;57.41;99978.63;146630;666;46012;-75
2022/11/23 07:56:28;;;;;;;;;;;;;;;;;;;;;
2022/11/23 07:59:22;;;;;;;;;1.33;0.00;;;;;16.83;56.87;99960.53;146623;586;47914;-75
2022/11/23 08:02:21;;;;;;;;;1.00;1.00;;;;;17.03;57.08;99973.03;146635;584;45020;-75
2022/11/23 08:05:17;;;;;;;;;2.00;1.00;;;;;17.15;56.91;99981.03;146629;598;45917;-76
2022/11/23 08:08:36;;;;;;;;;;;;;;;;;;;;;
2022/11/23 08:11:51;;;;;;;;;0.00;0.00;;;;;17.43;56.50;99968.28;146613;577;46016;-76
2022/11/23 08:14:47;;;;;;;;;2.00;1.00;;;;;17.63;54.82;99984.22;146616;682;46020;-75
2022/11/23 08:17:43;;;;;;;;;2.00;2.00;;;;;17.72;52.39;99985.19;146614;576;46016;-75
2022/11/23 08:20:39;;;;;;;;;0.00;0.00;;;;;17.84;52.38;99984.47;146604;578;46010;-75
2022/11/23 08:23:44;;;;;;;;;0.00;0.00;;;;;18.09;52.73;99979.44;146611;654;46016;-77
2022/11/23 08:26:39;;;;;;;;;0.00;0.00;;;;;18.37;49.41;99970.94;146618;569;46010;-75
2022/11/23 08:29:34;;;;;;;;;1.00;0.67;;;;;18.55;48.93;99978.06;146611;648;47012;-75
2022/11/23 08:32:26;;;;;;;;;0.00;0.00;;;;;18.70;50.31;99977.31;146615;583;46020;-75
2022/11/23 08:35:18;;;;;;;;;0.33;0.00;;;;;18.84;50.95;99969.53;146614;601;46016;-74
2022/11/23 08:38:13;;;;;;;;;1.00;0.00;;;;;18.90;49.95;99954.66;146618;634;46020;-74
2022/11/23 08:41:12;;;;;;;;;0.00;0.00;;;;;19.02;49.16;99955.63;146606;661;47014;-75
2022/11/23 08:44:10;;;;;;;;;0.00;0.00;;;;;19.01;46.26;99953.88;146617;569;46020;-76
2022/11/23 08:47:18;;;;;;;;;0.00;0.00;;;;;19.00;46.95;99962.59;146613;572;46012;-75
2022/11/23 08:50:37;;;;;;;;;;;;;;;;;;;;;
2022/11/23 08:53:55;;;;;;;;;0.00;0.00;;;;;16.56;48.80;99523.94;146612;626;46014;-75
2022/11/23 08:56:54;;;;;;;;;0.00;0.00;;;;;19.07;47.78;99952.16;146619;598;46010;-76
2022/11/23 09:00:02;;;;;;;;;;;;;;;;;;;;;
2022/11/23 09:02:57;;;;;;;;;0.00;0.00;;;;;19.13;48.01;99962.69;146617;594;46010;-74
2022/11/23 09:05:53;;;;;;;;;0.00;0.00;;;;;19.09;42.99;99957.38;146612;609;46026;-76
2022/11/23 09:08:50;;;;;;;;;0.00;0.00;;;;;18.99;44.88;99959.09;146617;581;46020;-75
2022/11/23 09:11:52;;;;;;;;;0.00;0.00;;;;;18.87;48.00;99957.28;146611;592;46014;-75
2022/11/23 09:15:06;;;;;;;;;0.00;0.00;;;;;18.81;48.44;99957.25;146620;586;46010;-74
2022/11/23 09:18:07;;;;;;;;;0.00;0.00;;;;;18.82;47.93;99955.53;146612;684;46028;-74
2022/11/23 09:21:00;;;;;;;;;0.00;0.00;;;;;18.82;47.18;99943.25;146603;569;46014;-74
2022/11/23 09:24:02;;;;;;;;;0.00;0.00;;;;;18.82;45.89;99942.41;146610;620;46016;-75
2022/11/23 09:27:12;;;;;;;;;;;;;;;;;;;;;
2022/11/23 09:30:17;;;;;;;;;0.00;0.00;;;;;18.96;51.55;99929.31;146612;582;46012;-75
2022/11/23 09:33:19;;;;;;;;;;;;;;;;;;;;;
2022/11/23 09:36:21;;;;;;;;;0.00;0.00;;;;;19.27;49.46;99920.66;146613;615;46016;-74
2022/11/23 09:39:20;;;;;;;;;1.67;0.67;;;;;19.59;46.62;99923.41;146614;579;47011;-74
2022/11/23 09:42:54;;;;;;;;;0.00;0.00;;;;;19.99;42.65;99915.53;146611;626;46012;-76
2022/11/23 09:46:49;;;;;;;;;1.67;0.00;;;;;17.90;47.32;99528.19;146619;574;46020;-74
2022/11/23 09:50:38;;;;;;;;;0.00;0.00;;;;;17.97;46.47;99518.59;146612;571;46012;-74
2022/11/23 09:54:02;;;;;;;;;0.00;0.00;;;;;18.15;46.17;99509.88;146604;609;46010;-75
2022/11/23 09:57:11;;;;;;;;;0.00;0.00;;;;;20.67;43.52;99919.00;146614;639;46012;-75
2022/11/23 10:00:22;;;;;;;;;0.00;0.00;;;;;20.75;44.84;99900.56;146617;590;46014;-80
2022/11/23 10:03:19;;;;;;;;;0.00;0.00;;;;;20.77;43.51;99893.50;146613;569;46017;-75
2022/11/23 10:06:32;;;;;;;;;0.00;0.00;;;;;18.08;45.86;99430.31;146617;588;46020;-76
2022/11/23 10:10:00;;;;;;;;;0.33;0.00;;;;;20.85;46.86;99898.75;146613;597;46016;-75
2022/11/23 10:13:18;;;;;;;;;0.33;0.00;;;;;20.86;45.68;99884.69;146618;597;46010;-79
2022/11/23 10:16:40;;;;;;;;;0.00;0.00;;;;;20.80;44.98;99887.34;146613;695;46915;-76
2022/11/23 10:20:22;;;;;;;;;0.00;0.00;;;;;20.81;44.30;99895.28;146617;569;46020;-76
2022/11/23 10:23:39;;;;;;;;;2.00;0.00;;;;;20.81;44.67;99894.37;146611;666;46012;-75
2022/11/23 10:26:41;;;;;;;;;0.00;0.00;;;;;20.74;43.48;99890.88;146605;569;46010;-77
2022/11/23 10:29:43;;;;;;;;;0.00;0.00;;;;;20.70;43.92;99899.69;146613;573;46012;-78
2022/11/23 10:33:28;;;;;;;;;0.00;0.00;;;;;20.75;45.38;99896.16;146617;686;47011;-78
2022/11/23 10:36:23;;;;;;;;;1.33;1.33;;;;;20.95;41.53;99882.91;146613;587;46016;-76
2022/11/23 10:39:27;;;;;;;;;0.00;0.00;;;;;21.16;43.12;99881.91;146617;591;46021;-77
2022/11/23 10:42:39;;;;;;;;;0.00;0.00;;;;;21.39;42.33;99867.75;146611;576;46016;-78
2022/11/23 10:45:41;;;;;;;;;0.00;0.00;;;;;21.54;40.84;99864.13;146617;686;46029;-73
2022/11/23 10:48:43;;;;;;;;;0.00;0.00;;;;;21.68;40.84;99860.53;146612;569;46016;-76
2022/11/23 10:51:45;;;;;;;;;0.00;0.00;;;;;21.75;38.52;99874.53;146618;570;46020;-78
2022/11/23 10:55:08;;;;;;;;;0.00;0.00;;;;;21.80;43.04;99864.78;146614;613;46016;-77
2022/11/23 10:58:41;;;;;;;;;0.00;0.00;;;;;22.00;43.97;99863.78;146607;613;46010;-79
2022/11/23 11:01:36;;;;;;;;;0.00;0.00;;;;;22.10;38.34;99858.38;146610;587;46017;-78
2022/11/23 11:04:31;;;;;;;;;0.00;0.00;;;;;22.28;37.68;99862.66;146617;683;46019;-77
2022/11/23 11:07:40;;;;;;;;;0.00;0.00;;;;;21.40;43.00;99676.97;146614;576;46013;-80
2022/11/23 11:11:29;;;;;;;;;0.00;0.00;;;;;22.67;42.33;99851.63;146617;586;46020;-78
2022/11/23 11:14:26;;;;;;;;;0.00;0.00;;;;;22.82;38.86;99847.03;146605;581;46016;-80
2022/11/23 11:17:40;;;;;;;;;0.00;0.00;;;;;22.83;40.74;99837.34;146619;585;46010;-76
2022/11/23 11:21:05;;;;;;;;;0.00;0.00;;;;;22.76;39.80;99841.81;146612;594;46016;-80
2022/11/23 11:24:12;;;;;;;;;0.00;0.00;;;;;22.64;40.66;99841.09;146618;596;46011;-79
2022/11/23 11:27:33;;;;;;;;;0.00;0.00;;;;;22.67;40.36;99834.00;146612;584;45917;-77
2022/11/23 11:30:45;;;;;;;;;0.00;0.00;;;;;22.74;37.41;99837.44;146606;565;46014;-78
2022/11/23 11:34:10;;;;;;;;;0.00;0.00;;;;;22.66;38.54;99819.06;146613;566;46012;-79
2022/11/23 11:38:01;;;;;;;;;0.00;0.00;;;;;22.59;41.77;99826.19;146619;567;46021;-77
2022/11/23 11:41:03;;;;;;;;;0.00;0.00;;;;;22.49;38.58;99819.28;146615;606;46016;-78
2022/11/23 11:44:05;;;;;;;;;1.00;0.00;;;;;22.29;39.66;99819.50;146617;644;46010;-77
2022/11/23 11:47:29;;;;;;;;;0.00;0.00;;;;;22.05;39.63;99827.63;146611;620;46917;-77
2022/11/23 11:51:08;;;;;;;;;0.00;0.00;;;;;19.65;41.64;99449.16;146617;600;46020;-75
2022/11/23 11:54:41;;;;;;;;;0.00;0.00;;;;;21.93;40.87;99831.25;146610;692;46016;-75
2022/11/23 11:58:09;;;;;;;;;0.00;0.00;;;;;19.81;42.49;99439.41;146616;564;46010;-75
2022/11/23 12:01:44;;;;;;;;;0.00;0.00;;;;;20.10;42.45;99444.50;146612;585;46012;-74
2022/11/23 12:05:17;;;;;;;;;0.00;0.00;;;;;22.63;40.71;99834.97;146605;570;46020;-75
2022/11/23 12:08:55;;;;;;;;;0.67;0.00;;;;;20.66;41.34;99479.16;146614;571;46013;-79
2022/11/23 12:11:50;;;;;;;;;0.00;0.00;;;;;22.65;38.09;99843.75;146617;576;46020;-82
2022/11/23 12:14:45;;;;;;;;;0.00;0.00;;;;;22.59;37.61;99843.81;146614;676;46016;-79
2022/11/23 12:18:41;;;;;;;;;0.00;0.00;;;;;20.61;41.66;99481.81;146615;631;46029;-79
2022/11/23 12:22:00;;;;;;;;;0.00;0.00;;;;;23.04;38.87;99850.31;146612;608;46017;-78
2022/11/23 12:25:35;;;;;;;;;;;;;;;;;;;;;
2022/11/23 12:29:08;;;;;;;;;0.00;0.00;;;;;23.59;37.52;99829.25;146609;570;46015;-83
2022/11/23 12:32:15;;;;;;;;;0.00;0.00;;;;;23.81;38.11;99843.88;146619;588;46020;-80
2022/11/23 12:35:59;;;;;;;;;0.00;0.00;;;;;21.95;38.27;99498.69;146613;692;46016;-81
2022/11/23 12:39:24;;;;;;;;;0.00;0.00;;;;;21.78;37.24;99465.53;146603;704;46021;-84
2022/11/23 12:42:51;;;;;;;;;0.00;0.00;;;;;23.98;36.69;99840.94;146614;609;46016;-83
2022/11/23 12:46:22;;;;;;;;;0.00;0.00;;;;;24.02;37.37;99841.75;146617;574;46019;-85
2022/11/23 12:49:39;;;;;;;;;0.00;0.00;;;;;24.02;33.90;99836.47;146611;576;46012;-86
2022/11/23 12:53:05;;;;;;;;;0.00;0.00;;;;;23.97;33.89;99845.38;146616;614;46021;-87
2022/11/23 12:56:39;;;;;;;;;0.00;0.00;;;;;21.88;33.42;99477.69;146612;588;46913;-84
2022/11/23 13:00:01;;;;;;;;;0.00;0.00;;;;;24.08;32.65;99847.84;146621;564;46021;-86
2022/11/23 13:03:38;;;;;;;;;0.00;0.00;;;;;21.97;37.11;99466.13;146615;593;46016;-85
2022/11/23 13:07:26;;;;;;;;;0.00;0.00;;;;;24.33;31.87;99847.34;146615;680;46020;-83
2022/11/23 13:11:03;;;;;;;;;0.00;0.00;;;;;24.31;31.72;99843.88;146612;613;46014;-80
2022/11/23 13:14:52;;;;;;;;;0.00;0.00;;;;;22.06;37.79;99465.97;146613;565;46021;-84
2022/11/23 13:18:32;;;;;;;;;0.00;0.00;;;;;24.28;32.31;99834.22;146617;575;46016;-86
2022/11/23 13:21:51;;;;;;;;;0.00;0.00;;;;;24.25;35.58;99839.56;146618;566;46010;-85
2022/11/23 13:25:18;;;;;;;;;0.33;0.00;;;;;24.22;35.75;99841.41;146611;582;46012;-84
2022/11/23 13:28:35;;;;;;;;;0.00;0.00;;;;;24.30;33.35;99840.37;146617;612;46010;-88
2022/11/23 13:31:50;;;;;;;;;0.00;0.00;;;;;24.08;34.34;99846.94;146613;678;46016;-83
2022/11/23 13:35:10;;;;;;;;;0.00;0.00;;;;;21.18;36.07;99462.75;146623;589;46020;-83
2022/11/23 13:38:43;;;;;;;;;0.00;0.00;;;;;21.57;37.42;99650.47;146614;712;46017;-82
2022/11/23 13:42:09;;;;;;;;;0.33;0.00;;;;;19.70;35.05;99439.50;146615;577;46028;-81
2022/11/23 13:45:32;;;;;;;;;0.00;0.00;;;;;19.21;36.60;99452.00;146612;573;46013;-78
2022/11/23 13:48:26;;;;;;;;;1.00;1.00;;;;;21.33;36.16;99863.34;146610;619;46014;-80
2022/11/23 13:51:41;;;;;;;;;1.67;0.00;;;;;19.09;36.94;99453.78;146611;564;46035;-79
2022/11/23 13:54:37;;;;;;;;;1.00;0.00;;;;;21.73;36.70;99857.84;146616;593;46010;-82
2022/11/23 13:57:35;;;;;;;;;0.00;0.00;;;;;22.08;36.45;99860.16;146615;578;46015;-83
2022/11/23 14:00:55;;;;;;;;;0.00;0.00;;;;;22.42;37.01;99848.41;146615;620;46010;-81
2022/11/23 14:04:22;;;;;;;;;0.00;0.00;;;;;22.62;38.20;99842.88;146615;586;45912;-82
2022/11/23 14:07:46;;;;;;;;;0.33;0.00;;;;;22.55;37.77;99798.06;146619;614;46010;-80
2022/11/23 14:10:42;;;;;;;;;0.00;0.00;;;;;22.58;35.30;99840.28;146610;573;46037;-82
2022/11/23 14:13:43;;;;;;;;;0.00;0.00;;;;;22.01;35.50;99820.63;146618;600;46010;-83
2022/11/23 14:17:31;;;;;;;;;0.00;0.00;;;;;21.68;38.01;99852.59;146614;586;46012;-82
2022/11/23 14:21:17;;;;;;;;;0.00;0.00;;;;;18.70;38.90;99439.88;146605;570;46021;-82
2022/11/23 14:24:55;;;;;;;;;0.00;0.00;;;;;18.35;38.59;99437.31;146612;583;46016;-82
2022/11/23 14:28:29;;;;;;;;;0.00;0.00;;;;;20.67;39.95;99862.81;146616;564;46010;-81
2022/11/23 14:32:00;;;;;;;;;1.33;0.00;;;;;17.99;39.54;99428.56;146613;664;46016;-80
2022/11/23 14:35:32;;;;;;;;;2.00;1.00;;;;;18.96;42.13;99624.59;146619;590;46020;-80
2022/11/23 14:39:03;;;;;;;;;1.00;0.00;;;;;20.18;42.24;99857.63;146613;630;46016;-80
2022/11/23 14:42:02;;;;;;;;;1.33;1.00;;;;;19.49;41.14;99765.59;146616;590;46022;-78
2022/11/23 14:45:03;;;;;;;;;0.00;0.00;;;;;19.83;41.22;99850.66;146611;611;46025;-80
2022/11/23 14:48:21;;;;;;;;;2.00;2.00;;;;;19.72;42.04;99865.56;146615;609;46020;-79
2022/11/23 14:51:52;;;;;;;;;1.00;0.00;;;;;19.53;44.00;99862.00;146612;602;46012;-80
2022/11/23 14:54:52;;;;;;;;;3.00;2.00;;;;;19.35;43.33;99871.63;146607;565;46020;-79
2022/11/23 14:58:00;;;;;;;;;;;;;;;;;;;;;
2022/11/23 15:00:54;;;;;;;;;2.00;1.00;;;;;19.10;43.98;99870.69;146617;643;46020;-78
2022/11/23 15:03:58;;;;;;;;;1.00;1.00;;;;;19.02;44.11;99867.16;146614;570;46915;-79
2022/11/23 15:07:07;;;;;;;;;2.00;1.00;;;;;16.35;45.78;99419.13;146619;619;47010;-78
2022/11/23 15:10:27;;;;;;;;;3.67;3.67;;;;;18.93;45.72;99872.37;146611;563;46016;-79